createdAt,value
2017-11-22T00:00:35.031Z,99654
2017-11-22T00:03:05.571Z,99656
2017-11-22T00:05:38.227Z,99659
2017-11-22T00:08:08.346Z,99653
2017-11-22T00:10:38.285Z,99656
2017-11-22T00:13:08.323Z,99649
2017-11-22T00:15:38.230Z,99648
2017-11-22T00:18:08.177Z,99654
2017-11-22T00:20:38.236Z,99647
2017-11-22T00:23:08.109Z,99645
2017-11-22T00:25:38.034Z,99649
2017-11-22T00:28:08.648Z,99650
2017-11-22T00:30:38.644Z,99651
2017-11-22T00:33:08.657Z,99644
2017-11-22T00:35:38.526Z,99629
2017-11-22T00:38:08.701Z,99644
2017-11-22T00:40:38.586Z,99638
2017-11-22T00:43:08.496Z,99635
2017-11-22T00:45:38.363Z,99636
2017-11-22T00:48:08.303Z,99625
2017-11-22T00:50:38.175Z,99632
2017-11-22T00:53:08.087Z,99621
2017-11-22T00:55:38.075Z,99632
2017-11-22T00:58:07.976Z,99619
2017-11-22T01:00:37.881Z,99621
2017-11-22T01:03:07.808Z,99626
2017-11-22T01:05:37.690Z,99626
2017-11-22T01:08:07.603Z,99620
2017-11-22T01:10:37.523Z,99627
2017-11-22T01:13:07.527Z,99634
2017-11-22T01:15:37.388Z,99629
2017-11-22T01:18:07.266Z,99617
2017-11-22T01:20:37.172Z,99625
2017-11-22T01:23:07.080Z,99626
2017-11-22T01:25:57.594Z,99620
2017-11-22T01:54:07.901Z,99590
2017-11-22T01:56:37.783Z,99592
2017-11-22T01:59:07.676Z,99590
2017-11-22T02:01:37.563Z,99581
2017-11-22T02:04:07.456Z,99579
2017-11-22T02:06:37.366Z,99585
2017-11-22T02:09:07.241Z,99586
2017-11-22T02:11:37.338Z,99588
2017-11-22T02:14:07.217Z,99583
2017-11-22T02:16:37.112Z,99588
2017-11-22T02:19:06.987Z,99587
2017-11-22T02:21:36.875Z,99585
2017-11-22T02:24:06.764Z,99574
2017-11-22T02:26:36.669Z,99581
2017-11-22T02:29:06.544Z,99549
2017-11-22T02:31:36.444Z,99562
2017-11-22T02:34:06.332Z,99551
2017-11-22T02:36:36.211Z,99548
2017-11-22T02:39:06.087Z,99553
2017-11-22T02:41:36.001Z,99551
2017-11-22T02:44:05.916Z,99552
2017-11-22T02:46:35.793Z,99541
2017-11-22T02:49:05.748Z,99556
2017-11-22T02:51:35.632Z,99554
2017-11-22T02:54:05.518Z,99552
2017-11-22T02:56:35.388Z,99552
2017-11-22T02:59:05.287Z,99546
2017-11-22T03:01:35.202Z,99549
2017-11-22T03:04:05.082Z,99541
2017-11-22T03:06:34.991Z,99542
2017-11-22T03:09:04.910Z,99548
2017-11-22T03:11:34.807Z,99543
2017-11-22T03:14:04.716Z,99545
2017-11-22T03:16:34.626Z,99549
2017-11-22T03:19:04.513Z,99548
2017-11-22T03:21:34.412Z,99536
2017-11-22T03:24:04.351Z,99545
2017-11-22T03:26:34.217Z,99524
2017-11-22T03:29:04.114Z,99529
2017-11-22T03:31:33.998Z,99523
2017-11-22T03:34:03.921Z,99525
2017-11-22T03:36:33.789Z,99533
2017-11-22T03:39:03.660Z,99523
2017-11-22T03:41:34.942Z,99528
2017-11-22T03:44:04.870Z,99521
2017-11-22T03:46:34.748Z,99528
2017-11-22T03:49:06.633Z,99517
2017-11-22T03:51:42.034Z,99514
2017-11-22T03:54:14.856Z,99516
2017-11-22T03:56:44.918Z,99514
2017-11-22T03:59:14.889Z,99513
2017-11-22T04:01:44.796Z,99510
2017-11-22T04:04:20.486Z,99508
2017-11-22T04:06:50.392Z,99497
2017-11-22T04:09:20.351Z,99500
2017-11-22T04:11:50.237Z,99489
2017-11-22T04:14:20.236Z,99499
2017-11-22T04:16:50.179Z,99491
2017-11-22T04:22:20.398Z,99484
2017-11-22T04:24:50.398Z,99487
2017-11-22T04:27:20.383Z,99486
2017-11-22T04:29:50.289Z,99495
2017-11-22T04:32:20.171Z,99487
2017-11-22T04:34:50.085Z,99479
2017-11-22T04:37:20.072Z,99473
2017-11-22T04:39:49.967Z,99486
2017-11-22T04:42:19.831Z,99478
2017-11-22T04:44:49.742Z,99473
2017-11-22T04:47:19.646Z,99468
2017-11-22T04:49:49.567Z,99466
2017-11-22T04:52:19.448Z,99467
2017-11-22T04:54:49.325Z,99456
2017-11-22T04:57:19.220Z,99463
2017-11-22T04:59:49.091Z,99462
2017-11-22T05:02:19.006Z,99463
2017-11-22T05:04:48.898Z,99459
2017-11-22T05:07:18.822Z,99463
2017-11-22T05:09:49.455Z,99469
2017-11-22T05:12:19.381Z,99459
2017-11-22T05:14:49.270Z,99460
2017-11-22T05:17:19.192Z,99456
2017-11-22T05:19:49.074Z,99450
2017-11-22T05:22:19.011Z,99461
2017-11-22T05:24:48.920Z,99452
2017-11-22T05:27:18.818Z,99454
2017-11-22T05:29:48.697Z,99460
2017-11-22T05:32:18.690Z,99458
2017-11-22T05:34:48.583Z,99454
2017-11-22T05:37:18.473Z,99452
2017-11-22T05:39:48.408Z,99457
2017-11-22T05:42:18.285Z,99458
2017-11-22T05:44:48.173Z,99468
2017-11-22T05:47:18.055Z,99456
2017-11-22T05:49:47.950Z,99455
2017-11-22T05:52:17.870Z,99452
2017-11-22T05:54:47.767Z,99462
2017-11-22T05:57:17.651Z,99467
2017-11-22T05:59:47.585Z,99452
2017-11-22T06:02:17.471Z,99461
2017-11-22T06:04:47.454Z,99463
2017-11-22T06:07:17.352Z,99472
2017-11-22T06:09:47.248Z,99464
2017-11-22T06:12:17.111Z,99478
2017-11-22T06:14:47.002Z,99473
2017-11-22T06:17:16.898Z,99467
2017-11-22T06:19:46.812Z,99483
2017-11-22T06:22:16.779Z,99476
2017-11-22T06:24:46.657Z,99485
2017-11-22T06:27:16.538Z,99481
2017-11-22T06:29:57.230Z,99483
2017-11-22T06:32:27.158Z,99487
2017-11-22T06:34:57.031Z,99481
2017-11-22T06:37:27.023Z,99487
2017-11-22T06:39:56.975Z,99496
2017-11-22T06:42:26.903Z,99493
2017-11-22T06:44:56.791Z,99485
2017-11-22T06:47:26.764Z,99487
2017-11-22T06:49:56.693Z,99371
2017-11-22T06:52:26.583Z,99501
2017-11-22T06:54:56.474Z,99497
2017-11-22T06:57:26.392Z,99500
2017-11-22T06:59:56.345Z,99500
2017-11-22T07:02:31.786Z,99498
2017-11-22T07:05:01.824Z,99499
2017-11-22T07:07:31.752Z,99507
2017-11-22T07:10:01.653Z,99521
2017-11-22T07:12:31.589Z,99509
2017-11-22T07:15:02.311Z,99519
2017-11-22T07:17:33.926Z,99519
2017-11-22T07:20:03.838Z,99527
2017-11-22T07:22:33.782Z,99534
2017-11-22T07:25:03.690Z,99527
2017-11-22T07:27:33.569Z,99525
2017-11-22T07:30:03.456Z,99525
2017-11-22T07:32:35.159Z,99534
2017-11-22T07:35:05.065Z,99536
2017-11-22T07:37:36.753Z,99541
2017-11-22T07:40:07.430Z,99541
2017-11-22T07:42:37.325Z,99549
2017-11-22T07:45:07.319Z,99547
2017-11-22T07:47:37.220Z,99547
2017-11-22T07:50:07.115Z,99549
2017-11-22T07:52:37.010Z,99541
2017-11-22T07:55:06.902Z,99555
2017-11-22T07:57:38.623Z,99555
2017-11-22T08:00:08.530Z,99557
2017-11-22T08:05:38.487Z,99551
2017-11-22T08:08:08.432Z,99564
2017-11-22T08:10:38.322Z,99560
2017-11-22T08:13:08.230Z,99566
2017-11-22T08:15:38.112Z,99570
2017-11-22T08:18:08.089Z,99570
2017-11-22T08:20:38.001Z,99581
2017-11-22T08:23:07.934Z,99579
2017-11-22T08:25:37.820Z,99574
2017-11-22T08:28:07.751Z,99581
2017-11-22T08:30:37.650Z,99579
2017-11-22T08:33:07.612Z,99572
2017-11-22T08:35:37.499Z,99574
2017-11-22T08:38:07.513Z,99584
2017-11-22T08:40:37.393Z,99591
2017-11-22T08:43:13.143Z,99591
2017-11-22T08:45:43.050Z,99604
2017-11-22T08:48:12.931Z,99594
2017-11-22T08:50:42.824Z,99605
2017-11-22T08:53:12.691Z,99602
2017-11-22T08:55:48.780Z,99602
2017-11-22T08:58:19.777Z,99607
2017-11-22T09:00:49.717Z,99605
2017-11-22T09:03:24.439Z,99606
2017-11-22T09:06:00.023Z,99607
2017-11-22T09:08:29.906Z,99595
2017-11-22T09:10:59.804Z,99608
2017-11-22T09:13:29.753Z,99616
2017-11-22T09:15:59.678Z,99617
2017-11-22T09:18:35.216Z,99620
2017-11-22T09:21:05.192Z,99631
2017-11-22T09:23:35.092Z,99622
2017-11-22T09:26:05.017Z,99620
2017-11-22T09:28:34.893Z,99617
2017-11-22T09:31:10.534Z,99627
2017-11-22T09:33:40.419Z,99597
2017-11-22T09:36:10.349Z,99640
2017-11-22T09:38:40.289Z,99642
2017-11-22T09:41:10.278Z,99639
2017-11-22T09:43:40.166Z,99640
2017-11-22T09:46:10.105Z,99632
2017-11-22T09:48:40.021Z,99629
2017-11-22T09:51:09.910Z,99634
2017-11-22T09:53:39.803Z,99641
2017-11-22T09:56:09.722Z,99636
2017-11-22T09:58:41.217Z,99624
2017-11-22T10:01:11.324Z,99644
2017-11-22T10:03:41.221Z,99641
2017-11-22T10:06:11.151Z,99630
2017-11-22T10:08:41.100Z,99644
2017-11-22T10:11:11.089Z,99638
2017-11-22T10:13:40.986Z,99639
2017-11-22T10:16:10.913Z,99638
2017-11-22T10:18:40.863Z,99647
2017-11-22T10:21:10.791Z,99647
2017-11-22T10:23:40.703Z,99643
2017-11-22T10:26:10.630Z,99643
2017-11-22T10:28:40.553Z,99654
2017-11-22T10:31:10.511Z,99646
2017-11-22T10:33:40.442Z,99637
2017-11-22T10:36:10.376Z,99646
2017-11-22T10:38:40.289Z,99647
2017-11-22T10:41:10.383Z,99642
2017-11-22T10:43:40.340Z,99643
2017-11-22T10:46:10.306Z,99639
2017-11-22T10:48:40.326Z,99644
2017-11-22T10:51:10.264Z,99645
2017-11-22T10:53:40.213Z,99639
2017-11-22T10:56:10.097Z,99638
2017-11-22T10:58:40.030Z,99638
2017-11-22T11:01:09.935Z,99640
2017-11-22T11:03:39.879Z,99642
2017-11-22T11:06:09.792Z,99643
2017-11-22T11:08:39.756Z,99627
2017-11-22T11:11:09.675Z,99641
2017-11-22T11:13:39.646Z,99638
2017-11-22T11:16:09.564Z,99640
2017-11-22T11:18:39.778Z,99648
2017-11-22T11:21:09.793Z,99648
2017-11-22T11:23:39.750Z,99649
2017-11-22T11:26:09.659Z,99639
2017-11-22T11:28:39.611Z,99643
2017-11-22T11:31:09.527Z,99642
2017-11-22T11:33:39.677Z,99646
2017-11-22T11:36:21.259Z,99650
2017-11-22T11:38:51.277Z,99650
2017-11-22T11:41:21.201Z,99652
2017-11-22T11:43:51.158Z,99653
2017-11-22T11:46:21.160Z,99642
2017-11-22T11:48:51.068Z,99646
2017-11-22T11:51:20.986Z,99657
2017-11-22T11:53:50.979Z,99660
2017-11-22T11:56:20.907Z,99665
2017-11-22T11:58:50.822Z,99658
2017-11-22T12:01:20.748Z,99655
2017-11-22T12:03:50.736Z,99661
2017-11-22T12:06:20.774Z,99663
2017-11-22T12:08:50.675Z,99649
2017-11-22T12:11:20.601Z,99655
2017-11-22T12:13:50.523Z,99662
2017-11-22T12:16:20.437Z,99655
2017-11-22T12:18:50.351Z,99658
2017-11-22T12:21:26.148Z,99648
2017-11-22T12:23:56.087Z,99655
2017-11-22T12:26:25.980Z,99664
2017-11-22T12:28:55.919Z,99654
2017-11-22T12:31:25.841Z,99665
2017-11-22T12:33:55.792Z,99663
2017-11-22T12:36:25.694Z,99657
2017-11-22T12:38:55.688Z,99647
2017-11-22T12:41:25.612Z,99657
2017-11-22T12:43:55.536Z,99646
2017-11-22T12:46:25.553Z,99641
2017-11-22T12:48:55.490Z,99651
2017-11-22T12:51:25.701Z,99640
2017-11-22T12:53:55.614Z,99651
2017-11-22T12:56:25.679Z,99650
2017-11-22T12:58:56.552Z,99653
2017-11-22T13:01:26.515Z,99652
2017-11-22T13:03:56.597Z,99659
2017-11-22T13:06:26.529Z,99664
2017-11-22T13:08:56.443Z,99664
2017-11-22T13:11:41.101Z,99668
2017-11-22T13:14:11.072Z,99660
2017-11-22T13:16:41.161Z,99660
2017-11-22T13:19:11.091Z,99661
2017-11-22T13:21:41.112Z,99664
2017-11-22T13:24:11.043Z,99668
2017-11-22T13:26:41.779Z,99670
2017-11-22T13:29:11.677Z,99670
2017-11-22T13:31:41.652Z,99663
2017-11-22T13:34:11.586Z,99653
2017-11-22T13:36:41.516Z,99664
2017-11-22T13:39:11.438Z,99664
2017-11-22T13:41:46.304Z,99660
2017-11-22T13:44:16.200Z,99642
2017-11-22T13:46:46.094Z,99645
2017-11-22T13:49:16.023Z,99610
2017-11-22T13:51:46.017Z,99636
2017-11-22T13:54:15.981Z,99633
2017-11-22T13:56:45.898Z,99632
2017-11-22T13:59:15.834Z,99625
2017-11-22T14:01:45.781Z,99629
2017-11-22T14:04:15.799Z,99647
2017-11-22T14:06:45.735Z,99637
2017-11-22T14:09:15.710Z,99642
2017-11-22T14:11:45.658Z,99635
2017-11-22T14:14:15.590Z,99634
2017-11-22T14:16:45.512Z,99631
2017-11-22T14:19:15.455Z,99633
2017-11-22T14:21:45.379Z,99637
2017-11-22T14:24:15.288Z,99631
2017-11-22T14:26:45.208Z,99638
2017-11-22T14:29:15.249Z,99634
2017-11-22T14:31:45.189Z,99637
2017-11-22T14:34:15.092Z,99647
2017-11-22T14:36:45.082Z,99642
2017-11-22T14:39:15.033Z,99642
2017-11-22T14:41:45.026Z,99637
2017-11-22T14:44:14.937Z,99647
2017-11-22T14:46:44.920Z,99641
2017-11-22T14:49:14.865Z,99642
2017-11-22T14:51:44.933Z,99640
2017-11-22T14:54:14.867Z,99642
2017-11-22T14:56:44.789Z,99631
2017-11-22T14:59:14.735Z,99628
2017-11-22T15:01:44.669Z,99626
2017-11-22T15:04:14.563Z,99630
2017-11-22T15:06:44.479Z,99632
2017-11-22T15:09:14.403Z,99641
2017-11-22T15:11:44.329Z,99628
2017-11-22T15:14:14.356Z,99634
2017-11-22T15:16:44.916Z,99636
2017-11-22T15:19:14.940Z,99632
2017-11-22T15:21:44.885Z,99622
2017-11-22T15:24:14.824Z,99624
2017-11-22T15:26:44.734Z,99614
2017-11-22T15:29:14.686Z,99619
2017-11-22T15:31:45.505Z,99621
2017-11-22T15:34:15.448Z,99611
2017-11-22T15:36:45.336Z,99623
2017-11-22T15:39:15.288Z,99619
2017-11-22T15:41:45.185Z,99627
2017-11-22T15:44:15.109Z,99636
2017-11-22T15:46:45.066Z,99640
2017-11-22T15:49:15.067Z,99635
2017-11-22T15:51:44.967Z,99640
2017-11-22T15:54:14.897Z,99637
2017-11-22T15:56:44.825Z,99643
2017-11-22T15:59:14.837Z,99640
2017-11-22T16:01:44.784Z,99640
2017-11-22T16:04:14.723Z,99496
2017-11-22T16:06:44.666Z,99627
2017-11-22T16:09:14.607Z,99622
2017-11-22T16:11:44.523Z,99626
2017-11-22T16:14:14.563Z,99626
2017-11-22T16:16:44.488Z,99630
2017-11-22T16:19:14.498Z,99635
2017-11-22T16:21:44.452Z,99643
2017-11-22T16:24:14.486Z,99642
2017-11-22T16:26:44.655Z,99618
2017-11-22T16:29:14.706Z,99643
2017-11-22T16:31:44.615Z,99645
2017-11-22T16:34:14.531Z,99637
2017-11-22T16:36:44.498Z,99645
2017-11-22T16:39:14.571Z,99636
2017-11-22T16:41:44.509Z,99633
2017-11-22T16:44:14.413Z,99634
2017-11-22T16:46:44.390Z,99632
2017-11-22T16:49:14.339Z,99633
2017-11-22T16:51:44.299Z,99624
2017-11-22T16:54:14.207Z,99625
2017-11-22T16:56:44.131Z,99628
2017-11-22T16:59:14.127Z,99620
2017-11-22T17:01:44.122Z,99619
2017-11-22T17:04:14.026Z,99617
2017-11-22T17:06:44.012Z,99622
2017-11-22T17:09:13.969Z,99605
2017-11-22T17:11:43.904Z,99622
2017-11-22T17:14:13.830Z,99608
2017-11-22T17:16:43.776Z,99621
2017-11-22T17:19:13.731Z,99610
2017-11-22T17:21:43.754Z,99608
2017-11-22T17:24:13.786Z,99614
2017-11-22T17:26:43.817Z,99609
2017-11-22T17:29:13.751Z,99611
2017-11-22T17:31:43.705Z,99597
2017-11-22T17:34:13.632Z,99603
2017-11-22T17:36:43.573Z,99603
2017-11-22T17:39:13.518Z,99598
2017-11-22T17:41:43.435Z,99592
2017-11-22T17:44:13.508Z,99596
2017-11-22T17:46:43.482Z,99599
2017-11-22T17:49:13.519Z,99602
2017-11-22T17:51:43.537Z,99592
2017-11-22T17:54:13.476Z,99596
2017-11-22T17:56:43.415Z,99591
2017-11-22T17:59:15.183Z,99598
2017-11-22T18:01:45.123Z,99588
2017-11-22T18:04:15.069Z,99594
2017-11-22T18:06:44.990Z,99583
2017-11-22T18:09:14.926Z,99582
2017-11-22T18:11:45.639Z,99580
2017-11-22T18:14:15.582Z,99583
2017-11-22T18:16:45.496Z,99579
2017-11-22T18:19:15.501Z,99570
2017-11-22T18:21:45.538Z,99571
2017-11-22T18:24:15.473Z,99571
2017-11-22T18:26:45.394Z,99557
2017-11-22T18:29:15.442Z,99561
2017-11-22T18:31:45.412Z,99560
2017-11-22T18:34:15.365Z,99566
2017-11-22T18:36:45.379Z,99557
2017-11-22T18:39:15.313Z,99551
2017-11-22T18:41:45.359Z,99535
2017-11-22T18:44:16.125Z,99463
2017-11-22T18:46:46.228Z,99536
2017-11-22T18:49:17.011Z,99529
2017-11-22T18:51:46.957Z,99531
2017-11-22T18:54:16.875Z,99536
2017-11-22T18:56:46.862Z,99530
2017-11-22T18:59:16.810Z,99532
2017-11-22T19:01:46.787Z,99522
2017-11-22T19:04:16.725Z,99529
2017-11-22T19:06:46.691Z,99529
2017-11-22T19:09:16.616Z,99531
2017-11-22T19:11:46.534Z,99540
2017-11-22T19:14:16.452Z,99536
2017-11-22T19:16:46.389Z,99538
2017-11-22T19:19:17.235Z,99534
2017-11-22T19:21:47.189Z,99529
2017-11-22T19:24:17.164Z,99531
2017-11-22T19:26:47.124Z,99528
2017-11-22T19:29:25.909Z,99530
2017-11-22T19:31:55.928Z,99532
2017-11-22T19:34:25.906Z,99533
2017-11-22T19:36:55.825Z,99531
2017-11-22T19:39:25.866Z,99527
2017-11-22T19:41:55.813Z,99528
2017-11-22T19:44:25.801Z,99516
2017-11-22T19:46:55.760Z,99513
2017-11-22T19:49:25.767Z,99515
2017-11-22T19:51:56.241Z,99511
2017-11-22T19:54:26.679Z,99508
2017-11-22T19:56:59.070Z,99508
2017-11-22T19:59:29.855Z,99498
2017-11-22T20:02:00.851Z,99505
2017-11-22T20:04:31.561Z,99500
2017-11-22T20:07:13.122Z,99500
2017-11-22T20:09:43.767Z,99502
2017-11-22T20:12:14.258Z,99490
2017-11-22T20:14:45.157Z,99493
2017-11-22T20:17:15.397Z,99497
2017-11-22T20:32:45.440Z,99510
2017-11-22T20:35:16.269Z,99505
2017-11-22T20:37:46.244Z,99498
2017-11-22T20:40:16.917Z,99495
2017-11-22T20:42:47.025Z,99491
2017-11-22T20:45:17.002Z,99498
2017-11-22T20:47:46.951Z,99500
2017-11-22T20:50:16.905Z,99494
2017-11-22T20:52:46.999Z,99491
2017-11-22T21:05:01.953Z,99492
2017-11-22T21:07:31.950Z,99482
2017-11-22T21:10:01.874Z,99493
2017-11-22T21:12:31.815Z,99488
2017-11-22T21:15:01.767Z,99482
2017-11-22T21:17:31.681Z,99481
2017-11-22T21:20:01.631Z,99487
2017-11-22T21:22:31.533Z,99483
2017-11-22T21:25:01.469Z,99482
2017-11-22T21:27:31.381Z,99484
2017-11-22T21:30:01.300Z,99488
2017-11-22T21:32:31.250Z,99476
2017-11-22T21:35:01.196Z,99472
2017-11-22T21:37:31.144Z,99468
2017-11-22T21:40:01.052Z,99467
2017-11-22T21:42:31.045Z,99467
2017-11-22T21:45:00.984Z,99466
2017-11-22T21:47:30.932Z,99478
2017-11-22T21:50:01.593Z,99476
2017-11-22T21:52:31.653Z,99476
2017-11-22T21:55:01.581Z,99481
2017-11-22T21:57:31.653Z,99474
2017-11-22T22:00:01.579Z,99479
2017-11-22T22:02:31.479Z,99479
2017-11-22T22:05:01.416Z,99475
2017-11-22T22:07:31.323Z,99474
2017-11-22T22:10:01.276Z,99475
2017-11-22T22:12:31.163Z,99488
2017-11-22T22:15:01.150Z,99479
2017-11-22T22:17:31.081Z,99470
2017-11-22T22:20:01.026Z,99468
2017-11-22T22:22:30.930Z,99468
2017-11-22T22:25:00.881Z,99456
2017-11-22T22:27:30.807Z,99467
2017-11-22T22:30:00.731Z,99461
2017-11-22T22:32:30.634Z,99454
2017-11-22T22:35:00.557Z,99446
2017-11-22T22:37:30.486Z,99452
2017-11-22T22:40:00.412Z,99452
2017-11-22T22:42:30.340Z,99441
2017-11-22T22:45:00.252Z,99444
2017-11-22T22:47:30.268Z,99449
2017-11-22T22:50:00.291Z,99441
2017-11-22T22:52:30.228Z,99448
2017-11-22T22:55:00.233Z,99444
2017-11-22T22:57:30.158Z,99444
2017-11-22T23:00:00.064Z,99432
2017-11-22T23:02:29.998Z,99428
2017-11-22T23:04:59.927Z,99435
2017-11-22T23:07:29.894Z,99432
2017-11-22T23:09:59.811Z,99437
2017-11-22T23:12:29.750Z,99430
2017-11-22T23:14:59.631Z,99429
2017-11-22T23:17:29.555Z,99438
2017-11-22T23:19:59.464Z,99432
2017-11-22T23:22:29.391Z,99430
2017-11-22T23:24:59.425Z,99425
2017-11-22T23:27:29.339Z,99420
2017-11-22T23:29:59.268Z,99429
2017-11-22T23:32:29.176Z,99418
2017-11-22T23:34:59.112Z,99413
2017-11-22T23:37:29.032Z,99406
2017-11-22T23:39:58.971Z,99417
2017-11-22T23:42:29.519Z,99411
2017-11-22T23:44:59.503Z,99415
2017-11-22T23:47:29.424Z,99407
2017-11-22T23:49:59.405Z,99407
2017-11-22T23:52:29.324Z,99399
2017-11-22T23:54:59.267Z,99401
2017-11-22T23:57:29.186Z,99399
2017-11-22T23:59:59.094Z,99402
